Time;durP1;ratioP1;P1;durP2;ratioP2;P2;SDS_P1;SDS_P2;PMS_P1;PMS_P2;Temp;Humidity;BMP_temperature;BMP_pressure;BME280_temperature;BME280_humidity;BME280_pressure;Samples;Min_cycle;Max_cycle;Signal;HPM_P1;HPM_P2
2023/09/04 00:01:08;;;;;;;17.08;10.52;;;;;;;;;;5034131;28;20105;-53
2023/09/04 00:03:35;;;;;;;18.92;10.93;;;;;;;;;;5033914;28;20033;-57
2023/09/04 00:06:00;;;;;;;17.55;10.63;;;;;;;;;;5015640;28;20059;-57
2023/09/04 00:08:26;;;;;;;17.95;11.02;;;;;;;;;;5016037;28;20451;-56
2023/09/04 00:10:52;;;;;;;20.58;11.13;;;;;;;;;;5033654;28;20029;-56
2023/09/04 00:13:18;;;;;;;18.83;10.77;;;;;;;;;;5033701;28;20022;-56
2023/09/04 00:15:45;;;;;;;19.48;11.05;;;;;;;;;;5032962;28;20022;-54
2023/09/04 00:18:11;;;;;;;19.52;11.05;;;;;;;;;;5033659;28;20137;-57
2023/09/04 00:20:37;;;;;;;17.13;11.05;;;;;;;;;;5033608;28;20482;-55
2023/09/04 00:23:03;;;;;;;17.77;10.27;;;;;;;;;;5033730;28;20029;-56
2023/09/04 00:25:29;;;;;;;17.58;10.38;;;;;;;;;;5032890;28;20021;-54
2023/09/04 00:27:57;;;;;;;19.38;11.60;;;;;;;;;;5033349;28;20382;-56
2023/09/04 00:30:23;;;;;;;18.80;11.25;;;;;;;;;;5033586;28;20032;-57
2023/09/04 00:32:49;;;;;;;18.45;11.07;;;;;;;;;;5033487;28;20029;-57
2023/09/04 00:35:15;;;;;;;18.55;10.60;;;;;;;;;;5032762;28;20037;-54
2023/09/04 00:37:42;;;;;;;19.42;10.68;;;;;;;;;;5015507;28;20131;-55
2023/09/04 00:40:08;;;;;;;19.35;11.63;;;;;;;;;;5033348;28;20064;-56
2023/09/04 00:42:35;;;;;;;20.38;11.35;;;;;;;;;;5033362;28;20026;-52
2023/09/04 00:45:01;;;;;;;18.70;11.20;;;;;;;;;;5032502;28;20048;-56
2023/09/04 00:47:28;;;;;;;18.35;11.80;;;;;;;;;;5032844;28;20107;-57
2023/09/04 00:49:54;;;;;;;25.95;12.65;;;;;;;;;;5032968;28;20025;-54
2023/09/04 00:52:21;;;;;;;20.52;11.60;;;;;;;;;;5033000;28;20030;-54
2023/09/04 00:54:48;;;;;;;18.70;11.20;;;;;;;;;;5014495;28;20417;-58
2023/09/04 00:57:15;;;;;;;20.13;12.38;;;;;;;;;;5033046;28;20033;-58
2023/09/04 00:59:42;;;;;;;20.50;11.80;;;;;;;;;;5032949;28;20041;-57
2023/09/04 01:02:08;;;;;;;20.70;11.60;;;;;;;;;;5032542;28;20453;-58
2023/09/04 01:04:34;;;;;;;20.08;11.93;;;;;;;;;;5032076;28;20474;-57
2023/09/04 01:07:00;;;;;;;20.75;11.55;;;;;;;;;;5032453;28;20029;-58
2023/09/04 01:09:27;;;;;;;19.65;11.90;;;;;;;;;;5032053;28;20025;-54
2023/09/04 01:11:58;;;;;;;19.35;11.88;;;;;;;;;;5032640;28;20033;-56
2023/09/04 01:14:25;;;;;;;20.40;11.50;;;;;;;;;;5031841;28;20048;-52
2023/09/04 01:16:52;;;;;;;20.55;12.05;;;;;;;;;;5032383;28;20469;-54
2023/09/04 01:19:19;;;;;;;23.05;12.55;;;;;;;;;;5032616;28;20021;-58
2023/09/04 01:21:45;;;;;;;21.08;11.63;;;;;;;;;;5032441;28;20034;-56
2023/09/04 01:24:11;;;;;;;19.17;11.45;;;;;;;;;;5031781;28;20040;-58
2023/09/04 01:26:40;;;;;;;20.35;12.10;;;;;;;;;;5032306;28;20021;-56
2023/09/04 01:29:25;;;;;;;20.38;11.30;;;;;;;;;;5032501;28;20034;-56
2023/09/04 01:31:57;;;;;;;19.45;11.77;;;;;;;;;;5032428;28;20090;-58
2023/09/04 01:34:25;;;;;;;20.08;12.45;;;;;;;;;;5013971;28;20087;-58
2023/09/04 01:36:57;;;;;;;19.95;12.13;;;;;;;;;;5032459;28;20018;-56
2023/09/04 01:39:23;;;;;;;19.85;12.05;;;;;;;;;;5032796;28;20022;-56
2023/09/04 01:41:49;;;;;;;22.23;12.20;;;;;;;;;;5033221;28;20022;-58
2023/09/04 01:44:15;;;;;;;19.98;12.25;;;;;;;;;;5031784;28;20526;-58
2023/09/04 01:46:41;;;;;;;20.80;12.27;;;;;;;;;;5031863;28;20044;-58
2023/09/04 01:49:07;;;;;;;21.13;12.25;;;;;;;;;;5014168;28;20431;-57
2023/09/04 01:51:33;;;;;;;21.25;12.30;;;;;;;;;;5031816;28;20056;-58
2023/09/04 01:53:59;;;;;;;20.45;12.32;;;;;;;;;;5031235;28;20055;-57
2023/09/04 01:56:25;;;;;;;21.73;12.48;;;;;;;;;;5031523;28;20076;-57
2023/09/04 01:58:51;;;;;;;20.67;13.02;;;;;;;;;;5013907;28;20029;-58
2023/09/04 02:01:17;;;;;;;18.27;12.18;;;;;;;;;;5013850;28;20021;-55
2023/09/04 02:03:44;;;;;;;21.98;13.18;;;;;;;;;;5031524;28;20048;-58
2023/09/04 02:06:10;;;;;;;18.98;12.13;;;;;;;;;;5030871;28;20018;-59
2023/09/04 02:08:36;;;;;;;22.02;13.10;;;;;;;;;;5031409;28;20485;-56
2023/09/04 02:11:02;;;;;;;26.75;12.35;;;;;;;;;;5031498;28;20052;-60
2023/09/04 02:13:28;;;;;;;20.48;12.35;;;;;;;;;;5031459;28;20485;-56
2023/09/04 02:15:54;;;;;;;20.08;12.52;;;;;;;;;;5031007;28;20048;-58
2023/09/04 02:18:20;;;;;;;22.38;13.55;;;;;;;;;;5031335;28;20034;-57
2023/09/04 02:20:47;;;;;;;20.85;12.63;;;;;;;;;;5031017;28;20109;-56
2023/09/04 02:23:13;;;;;;;21.38;13.52;;;;;;;;;;5031233;28;20036;-58
2023/09/04 02:25:39;;;;;;;20.60;13.50;;;;;;;;;;5030570;28;20021;-55
2023/09/04 02:28:05;;;;;;;22.63;13.27;;;;;;;;;;5031181;28;20096;-57
2023/09/04 02:30:31;;;;;;;20.80;13.00;;;;;;;;;;5031270;28;20029;-56
2023/09/04 02:32:58;;;;;;;19.75;12.98;;;;;;;;;;5031187;28;20035;-56
2023/09/04 02:35:25;;;;;;;21.70;12.95;;;;;;;;;;5030579;28;20100;-58
2023/09/04 02:37:51;;;;;;;19.98;12.90;;;;;;;;;;5031078;28;20021;-55
2023/09/04 02:40:17;;;;;;;29.05;15.00;;;;;;;;;;5031143;28;20486;-55
2023/09/04 02:42:43;;;;;;;20.08;12.85;;;;;;;;;;5031044;28;20136;-56
2023/09/04 02:45:09;;;;;;;20.60;13.30;;;;;;;;;;5030223;28;20026;-55
2023/09/04 02:47:38;;;;;;;22.13;14.73;;;;;;;;;;5030894;28;20107;-56
2023/09/04 02:50:05;;;;;;;21.85;13.50;;;;;;;;;;5031036;28;20025;-56
2023/09/04 02:52:31;;;;;;;24.00;14.38;;;;;;;;;;5031018;28;20041;-57
2023/09/04 02:54:59;;;;;;;23.38;14.32;;;;;;;;;;5012369;28;20419;-58
2023/09/04 02:57:25;;;;;;;21.15;13.85;;;;;;;;;;5030497;28;20539;-56
2023/09/04 02:59:51;;;;;;;20.40;13.40;;;;;;;;;;5030802;28;20066;-59
2023/09/04 03:02:17;;;;;;;20.08;13.63;;;;;;;;;;5030751;28;20159;-55
2023/09/04 03:04:43;;;;;;;21.92;14.43;;;;;;;;;;5030043;28;20085;-58
2023/09/04 03:07:09;;;;;;;22.85;14.93;;;;;;;;;;5030676;28;20029;-56
2023/09/04 03:09:35;;;;;;;22.00;14.27;;;;;;;;;;5030618;28;20017;-57
2023/09/04 03:12:02;;;;;;;21.55;13.40;;;;;;;;;;5030638;28;20129;-55
2023/09/04 03:14:28;;;;;;;25.73;15.20;;;;;;;;;;5029995;28;20496;-56
2023/09/04 03:16:54;;;;;;;20.83;13.93;;;;;;;;;;5030505;28;20041;-56
2023/09/04 03:19:20;;;;;;;24.40;15.48;;;;;;;;;;5030662;28;20025;-57
2023/09/04 03:21:47;;;;;;;23.05;14.55;;;;;;;;;;5030464;28;20096;-56
2023/09/04 03:24:13;;;;;;;22.88;15.32;;;;;;;;;;5029898;28;20032;-58
2023/09/04 03:26:39;;;;;;;23.08;16.13;;;;;;;;;;5030451;28;20021;-56
2023/09/04 03:29:05;;;;;;;23.80;16.02;;;;;;;;;;5030253;28;20466;-54
2023/09/04 03:31:31;;;;;;;23.05;15.27;;;;;;;;;;5031985;28;20048;-53
2023/09/04 03:33:58;;;;;;;23.88;15.80;;;;;;;;;;5033767;28;20033;-55
2023/09/04 03:36:24;;;;;;;23.17;15.50;;;;;;;;;;5034075;28;20021;-57
2023/09/04 03:38:50;;;;;;;23.63;16.27;;;;;;;;;;5019006;28;20573;-58
2023/09/04 03:41:16;;;;;;;25.55;15.02;;;;;;;;;;5037252;28;20029;-58
2023/09/04 03:43:42;;;;;;;23.58;15.73;;;;;;;;;;5035070;28;20390;-56
2023/09/04 03:46:13;;;;;;;22.10;14.45;;;;;;;;;;5033256;28;20029;-58
2023/09/04 03:48:38;;;;;;;21.58;14.48;;;;;;;;;;5033960;28;20044;-61
2023/09/04 03:51:05;;;;;;;23.08;14.73;;;;;;;;;;5033982;28;20541;-59
2023/09/04 03:53:30;;;;;;;22.77;14.77;;;;;;;;;;5034187;28;20057;-56
2023/09/04 03:56:06;;;;;;;26.65;14.60;;;;;;;;;;5033126;28;20689;-58
2023/09/04 03:58:32;;;;;;;23.33;15.15;;;;;;;;;;5033896;28;20029;-55
2023/09/04 04:00:58;;;;;;;23.88;15.85;;;;;;;;;;5033532;28;20102;-57
2023/09/04 04:03:24;;;;;;;21.50;15.13;;;;;;;;;;5033622;28;20025;-56
2023/09/04 04:05:50;;;;;;;22.38;15.82;;;;;;;;;;5032994;28;20374;-56
2023/09/04 04:08:16;;;;;;;22.85;15.88;;;;;;;;;;5033773;28;20041;-56
2023/09/04 04:10:44;;;;;;;22.77;15.57;;;;;;;;;;5033688;28;20116;-56
2023/09/04 04:13:10;;;;;;;23.40;15.02;;;;;;;;;;5033638;28;20049;-56
2023/09/04 04:15:38;;;;;;;25.15;16.55;;;;;;;;;;5033132;28;20029;-59
2023/09/04 04:18:04;;;;;;;24.37;15.23;;;;;;;;;;5033818;28;20056;-56
2023/09/04 04:20:30;;;;;;;27.48;16.30;;;;;;;;;;5033573;28;20030;-58
2023/09/04 04:22:56;;;;;;;24.63;16.00;;;;;;;;;;5033390;28;20052;-57
2023/09/04 04:25:23;;;;;;;22.30;15.55;;;;;;;;;;5032829;28;20033;-56
2023/09/04 04:27:49;;;;;;;22.73;15.18;;;;;;;;;;5033368;28;20019;-55
2023/09/04 04:30:15;;;;;;;24.50;16.48;;;;;;;;;;5015661;28;20026;-55
2023/09/04 04:32:41;;;;;;;23.85;17.02;;;;;;;;;;5033242;28;20596;-56
2023/09/04 04:35:07;;;;;;;24.27;16.80;;;;;;;;;;5032726;28;20108;-53
2023/09/04 04:37:33;;;;;;;23.73;16.33;;;;;;;;;;5033036;28;20070;-57
2023/09/04 04:40:00;;;;;;;23.15;15.30;;;;;;;;;;5033297;28;20493;-58
2023/09/04 04:42:26;;;;;;;23.70;15.07;;;;;;;;;;5032822;28;20485;-57
2023/09/04 04:44:55;;;;;;;24.23;15.95;;;;;;;;;;5032524;28;20104;-56
2023/09/04 04:47:21;;;;;;;23.52;15.80;;;;;;;;;;5032411;28;20033;-57
2023/09/04 04:49:47;;;;;;;25.48;15.95;;;;;;;;;;5033138;28;20029;-55
2023/09/04 04:52:13;;;;;;;25.40;17.05;;;;;;;;;;5032743;28;20048;-55
2023/09/04 04:54:39;;;;;;;23.80;16.92;;;;;;;;;;5032125;28;20136;-58
2023/09/04 04:57:05;;;;;;;24.65;17.88;;;;;;;;;;5032786;28;20036;-56
2023/09/04 04:59:31;;;;;;;21.98;15.45;;;;;;;;;;5032598;28;20422;-58
2023/09/04 05:02:00;;;;;;;24.08;16.75;;;;;;;;;;5032552;28;20037;-52
2023/09/04 05:04:26;;;;;;;25.40;15.73;;;;;;;;;;5031790;28;20155;-58
2023/09/04 05:06:52;;;;;;;27.63;17.27;;;;;;;;;;5047390;28;20049;-59
2023/09/04 05:09:18;;;;;;;25.30;17.15;;;;;;;;;;5052619;28;20036;-58
2023/09/04 05:11:43;;;;;;;23.30;16.90;;;;;;;;;;5052683;28;20041;-55
2023/09/04 05:14:09;;;;;;;26.95;17.70;;;;;;;;;;5051757;28;20040;-53
2023/09/04 05:16:35;;;;;;;25.00;17.50;;;;;;;;;;5052450;28;20118;-55
2023/09/04 05:19:01;;;;;;;23.05;16.38;;;;;;;;;;5052274;28;20016;-53
2023/09/04 05:21:27;;;;;;;21.77;15.52;;;;;;;;;;5052504;28;20385;-57
2023/09/04 05:23:53;;;;;;;24.63;16.38;;;;;;;;;;5051810;28;20029;-57
2023/09/04 05:26:19;;;;;;;23.58;16.17;;;;;;;;;;5051765;28;20052;-54
2023/09/04 05:28:45;;;;;;;24.52;16.60;;;;;;;;;;5051781;28;20492;-58
2023/09/04 05:31:11;;;;;;;25.63;17.00;;;;;;;;;;5051791;28;20059;-55
2023/09/04 05:33:37;;;;;;;21.85;15.40;;;;;;;;;;5051891;28;20052;-57
2023/09/04 05:36:04;;;;;;;22.17;15.00;;;;;;;;;;5050891;28;20438;-58
2023/09/04 05:38:30;;;;;;;21.60;15.05;;;;;;;;;;5033618;28;20079;-53
2023/09/04 05:40:57;;;;;;;27.67;15.40;;;;;;;;;;5051555;28;20486;-55
2023/09/04 05:43:24;;;;;;;22.10;15.27;;;;;;;;;;5051411;28;20025;-54
2023/09/04 05:45:50;;;;;;;24.23;15.77;;;;;;;;;;5050914;28;20017;-53
2023/09/04 05:48:16;;;;;;;22.67;16.20;;;;;;;;;;5050551;28;20369;-52
2023/09/04 05:50:42;;;;;;;22.73;14.93;;;;;;;;;;5065739;23;20020;-64
2023/09/04 05:53:08;;;;;;;20.55;15.38;;;;;;;;;;5049683;28;20041;-64
2023/09/04 05:55:37;;;;;;;23.05;15.48;;;;;;;;;;5032556;28;20108;-61
2023/09/04 05:58:03;;;;;;;20.13;13.45;;;;;;;;;;5051494;28;20099;-62
2023/09/04 06:00:29;;;;;;;21.30;15.15;;;;;;;;;;5033674;28;20046;-63
2023/09/04 06:02:55;;;;;;;20.42;14.48;;;;;;;;;;5071299;28;20466;-64
2023/09/04 06:05:21;;;;;;;20.65;15.05;;;;;;;;;;5070766;28;20029;-64
2023/09/04 06:07:47;;;;;;;21.50;14.90;;;;;;;;;;5071510;28;20477;-63
2023/09/04 06:10:13;;;;;;;19.95;13.98;;;;;;;;;;5071566;28;20548;-63
2023/09/04 06:12:39;;;;;;;23.38;15.27;;;;;;;;;;5070709;28;20583;-63
2023/09/04 06:15:06;;;;;;;19.50;14.00;;;;;;;;;;5070909;28;20028;-64
2023/09/04 06:17:32;;;;;;;20.92;14.60;;;;;;;;;;5070805;28;20052;-65
2023/09/04 06:19:59;;;;;;;19.75;14.50;;;;;;;;;;5071052;28;20039;-64
2023/09/04 06:22:24;;;;;;;22.38;15.27;;;;;;;;;;5070004;28;20025;-63
2023/09/04 06:24:50;;;;;;;21.35;14.82;;;;;;;;;;5069933;28;20052;-65
2023/09/04 06:27:16;;;;;;;23.02;13.88;;;;;;;;;;5071004;28;20025;-63
2023/09/04 06:29:42;;;;;;;20.23;14.20;;;;;;;;;;5071337;28;20510;-64
2023/09/04 06:32:08;;;;;;;21.95;14.93;;;;;;;;;;5070917;28;20032;-64
2023/09/04 06:34:34;;;;;;;20.75;13.98;;;;;;;;;;5069479;28;20024;-63
2023/09/04 06:37:00;;;;;;;19.92;13.73;;;;;;;;;;5065289;28;20016;-63
2023/09/04 06:39:26;;;;;;;25.08;14.82;;;;;;;;;;5070178;28;20032;-63
2023/09/04 06:41:53;;;;;;;21.42;14.02;;;;;;;;;;5070363;28;20039;-63
2023/09/04 06:44:19;;;;;;;19.58;13.85;;;;;;;;;;5051650;28;20017;-65
2023/09/04 06:46:45;;;;;;;20.95;13.65;;;;;;;;;;5052298;28;20067;-65
2023/09/04 06:49:11;;;;;;;21.08;14.27;;;;;;;;;;5070216;28;20407;-64
2023/09/04 06:51:37;;;;;;;20.33;13.77;;;;;;;;;;5070104;28;20032;-65
2023/09/04 06:54:04;;;;;;;21.88;14.43;;;;;;;;;;5069266;28;20085;-64
2023/09/04 06:56:30;;;;;;;30.63;16.58;;;;;;;;;;5051939;28;20119;-63
2023/09/04 06:58:56;;;;;;;25.95;16.52;;;;;;;;;;5070172;28;20590;-64
2023/09/04 07:01:23;;;;;;;23.52;13.82;;;;;;;;;;5070324;28;20067;-64
2023/09/04 07:03:49;;;;;;;21.45;14.13;;;;;;;;;;5051868;28;20028;-64
2023/09/04 07:06:15;;;;;;;21.50;14.32;;;;;;;;;;5053076;28;20020;-64
2023/09/04 07:08:41;;;;;;;18.30;13.00;;;;;;;;;;5074152;28;20024;-65
2023/09/04 07:11:07;;;;;;;19.20;13.07;;;;;;;;;;5073825;28;20043;-65
2023/09/04 07:13:33;;;;;;;20.35;13.07;;;;;;;;;;5074358;28;20069;-64
2023/09/04 07:15:59;;;;;;;20.60;13.20;;;;;;;;;;5073660;28;20027;-64
2023/09/04 07:18:26;;;;;;;23.67;13.43;;;;;;;;;;5056066;28;20167;-65
2023/09/04 07:20:52;;;;;;;18.60;12.10;;;;;;;;;;5073924;28;20409;-63
2023/09/04 07:23:19;;;;;;;20.88;12.70;;;;;;;;;;5073900;28;20100;-64
2023/09/04 07:25:45;;;;;;;19.30;13.00;;;;;;;;;;5073274;28;20028;-64
2023/09/04 07:28:11;;;;;;;22.23;14.02;;;;;;;;;;5073732;28;20020;-62
2023/09/04 07:30:37;;;;;;;20.83;13.48;;;;;;;;;;5073383;28;20025;-65
2023/09/04 07:33:03;;;;;;;19.42;12.77;;;;;;;;;;5055448;28;20078;-64
2023/09/04 07:35:29;;;;;;;23.33;12.43;;;;;;;;;;5072673;28;20029;-66
2023/09/04 07:37:55;;;;;;;21.92;13.50;;;;;;;;;;5053134;28;20094;-66
2023/09/04 07:40:21;;;;;;;18.45;12.35;;;;;;;;;;5053425;28;20038;-66
2023/09/04 07:42:47;;;;;;;20.20;12.82;;;;;;;;;;5053160;28;20028;-66
2023/09/04 07:45:15;;;;;;;21.08;13.43;;;;;;;;;;5052709;28;20080;-66
2023/09/04 07:47:41;;;;;;;20.08;13.40;;;;;;;;;;5053544;28;20021;-67
2023/09/04 07:50:07;;;;;;;21.73;13.27;;;;;;;;;;5053297;28;20025;-68
2023/09/04 07:52:33;;;;;;;20.70;12.77;;;;;;;;;;5054221;28;20118;-51
2023/09/04 07:54:59;;;;;;;21.38;14.50;;;;;;;;;;5055268;28;20025;-48
2023/09/04 07:57:25;;;;;;;20.98;13.52;;;;;;;;;;5054916;28;20044;-48
2023/09/04 07:59:51;;;;;;;19.30;13.27;;;;;;;;;;5053062;28;20033;-52
2023/09/04 08:02:17;;;;;;;21.17;12.50;;;;;;;;;;5035072;28;20508;-54
2023/09/04 08:04:43;;;;;;;23.27;13.68;;;;;;;;;;5052325;28;20111;-52
2023/09/04 08:07:09;;;;;;;17.45;11.70;;;;;;;;;;5052731;28;20021;-52
2023/09/04 08:09:35;;;;;;;18.20;12.88;;;;;;;;;;5053273;28;20100;-48
2023/09/04 08:12:01;;;;;;;18.15;12.45;;;;;;;;;;5054475;28;20598;-52
2023/09/04 08:14:33;;;;;;;19.35;12.52;;;;;;;;;;5072283;28;20025;-52
2023/09/04 08:16:59;;;;;;;28.58;15.95;;;;;;;;;;5052623;28;20485;-48
2023/09/04 08:19:25;;;;;;;22.25;13.07;;;;;;;;;;5052732;28;20021;-54
2023/09/04 08:21:51;;;;;;;23.13;13.57;;;;;;;;;;5052725;28;20493;-50
2023/09/04 08:24:17;;;;;;;21.75;12.82;;;;;;;;;;5051822;28;20114;-49
2023/09/04 08:26:43;;;;;;;19.90;13.25;;;;;;;;;;5052699;28;20017;-47
2023/09/04 08:29:10;;;;;;;19.98;12.35;;;;;;;;;;5052293;28;20365;-51
2023/09/04 08:31:36;;;;;;;19.67;12.82;;;;;;;;;;5052378;28;20024;-49
2023/09/04 08:34:02;;;;;;;20.73;13.30;;;;;;;;;;5051672;28;20028;-48
2023/09/04 08:36:28;;;;;;;18.98;12.45;;;;;;;;;;5056032;28;20016;-50
2023/09/04 08:38:54;;;;;;;18.70;12.75;;;;;;;;;;5072409;28;20082;-49
2023/09/04 08:41:21;;;;;;;18.52;12.20;;;;;;;;;;5053911;28;20050;-50
2023/09/04 08:43:49;;;;;;;18.25;13.20;;;;;;;;;;5071777;28;20416;-49
2023/09/04 08:46:16;;;;;;;20.25;13.05;;;;;;;;;;5053674;28;20024;-50
2023/09/04 08:48:44;;;;;;;20.58;13.95;;;;;;;;;;5071781;28;20036;-51
2023/09/04 08:51:10;;;;;;;18.55;13.65;;;;;;;;;;5071828;28;20036;-51
2023/09/04 08:53:36;;;;;;;21.75;13.00;;;;;;;;;;5071602;28;20036;-51
2023/09/04 08:56:03;;;;;;;23.73;12.90;;;;;;;;;;5071337;28;20103;-47
2023/09/04 08:58:30;;;;;;;17.38;13.18;;;;;;;;;;5072069;28;20049;-49
2023/09/04 09:00:56;;;;;;;18.83;11.85;;;;;;;;;;5071576;28;20053;-48
2023/09/04 09:03:22;;;;;;;19.27;12.40;;;;;;;;;;5071610;28;20056;-52
2023/09/04 09:05:48;;;;;;;18.55;12.98;;;;;;;;;;5070993;28;20028;-50
2023/09/04 09:08:16;;;;;;;25.15;14.30;;;;;;;;;;5071694;28;20024;-51
2023/09/04 09:10:45;;;;;;;18.60;13.38;;;;;;;;;;5071509;28;20103;-53
2023/09/04 09:13:14;;;;;;;19.85;14.32;;;;;;;;;;5051316;28;20474;-49
2023/09/04 09:15:40;;;;;;;20.23;12.85;;;;;;;;;;5069728;28;20043;-51
2023/09/04 09:18:06;;;;;;;18.35;13.25;;;;;;;;;;5069090;28;20036;-51
2023/09/04 09:20:39;;;;;;;19.73;12.88;;;;;;;;;;5069506;28;20104;-52
2023/09/04 09:23:05;;;;;;;17.30;12.07;;;;;;;;;;5069758;28;20485;-51
2023/09/04 09:25:31;;;;;;;18.13;13.05;;;;;;;;;;5069553;28;20064;-49
2023/09/04 09:28:01;;;;;;;20.05;12.30;;;;;;;;;;5070682;28;20048;-51
2023/09/04 09:30:34;;;;;;;19.77;12.90;;;;;;;;;;5070721;28;20077;-54
2023/09/04 09:33:03;;;;;;;21.70;13.00;;;;;;;;;;5053331;28;20112;-51
2023/09/04 09:35:31;;;;;;;18.48;12.05;;;;;;;;;;5070910;28;20028;-54
2023/09/04 09:37:58;;;;;;;17.88;12.50;;;;;;;;;;5071195;28;20094;-55
2023/09/04 09:40:24;;;;;;;20.27;13.15;;;;;;;;;;5071335;28;20025;-50
2023/09/04 09:42:50;;;;;;;18.67;13.13;;;;;;;;;;5070909;28;20134;-51
2023/09/04 09:45:16;;;;;;;20.13;12.50;;;;;;;;;;5070418;28;20028;-48
2023/09/04 09:47:42;;;;;;;17.25;11.90;;;;;;;;;;5071138;28;20020;-50
2023/09/04 09:50:08;;;;;;;17.88;13.45;;;;;;;;;;5070903;28;20378;-49
2023/09/04 09:52:34;;;;;;;18.23;12.52;;;;;;;;;;5070844;28;20130;-52
2023/09/04 09:55:00;;;;;;;17.98;12.25;;;;;;;;;;5070216;28;20052;-51
2023/09/04 09:57:27;;;;;;;18.20;12.80;;;;;;;;;;5071047;28;20515;-51
2023/09/04 09:59:53;;;;;;;18.15;12.80;;;;;;;;;;5071042;28;20396;-48
2023/09/04 10:02:20;;;;;;;19.20;13.10;;;;;;;;;;5070558;28;20028;-53
2023/09/04 10:04:46;;;;;;;17.23;12.30;;;;;;;;;;5070027;28;20417;-49
2023/09/04 10:07:17;;;;;;;19.17;13.20;;;;;;;;;;5052792;28;20039;-51
2023/09/04 10:09:49;;;;;;;16.85;12.85;;;;;;;;;;5072219;28;20027;-53
2023/09/04 10:12:24;;;;;;;17.67;12.82;;;;;;;;;;5071830;28;20067;-53
2023/09/04 10:14:51;;;;;;;18.05;12.13;;;;;;;;;;5069837;28;20041;-53
2023/09/04 10:17:40;;;;;;;17.83;13.18;;;;;;;;;;5070607;28;20020;-50
2023/09/04 10:20:06;;;;;;;20.58;13.25;;;;;;;;;;5060217;28;20037;-49
2023/09/04 10:22:39;;;;;;;19.98;13.50;;;;;;;;;;5070280;28;20205;-52
2023/09/04 10:25:17;;;;;;;19.33;13.32;;;;;;;;;;5069469;28;20032;-54
2023/09/04 10:27:45;;;;;;;19.02;13.50;;;;;;;;;;5070278;28;20028;-49
2023/09/04 10:30:15;;;;;;;17.55;13.55;;;;;;;;;;5070245;28;20477;-52
2023/09/04 10:32:41;;;;;;;18.23;13.27;;;;;;;;;;5069990;28;20060;-52
2023/09/04 10:35:09;;;;;;;20.77;14.55;;;;;;;;;;5069224;28;20033;-53
2023/09/04 10:37:37;;;;;;;18.27;14.80;;;;;;;;;;5052141;28;20097;-53
2023/09/04 10:40:05;;;;;;;17.55;13.65;;;;;;;;;;5070146;28;20021;-48
2023/09/04 10:42:33;;;;;;;;;;;;;;;;;;5070187;28;20051;-54
2023/09/04 10:45:10;;;;;;;19.35;14.95;;;;;;;;;;5069636;28;19905;-54
2023/09/04 10:47:44;;;;;;;19.42;14.98;;;;;;;;;;5052015;28;20024;-50
2023/09/04 10:50:28;;;;;;;19.08;13.88;;;;;;;;;;5070099;28;20340;-49
2023/09/04 10:52:55;;;;;;;17.10;13.52;;;;;;;;;;5069721;28;20052;-51
2023/09/04 10:55:21;;;;;;;20.17;14.18;;;;;;;;;;5069289;28;20029;-53
2023/09/04 10:57:58;;;;;;;18.20;14.18;;;;;;;;;;5051662;28;20103;-47
2023/09/04 11:00:37;;;;;;;20.30;13.70;;;;;;;;;;5069841;28;20035;-50
2023/09/04 11:03:32;;;;;;;20.52;15.30;;;;;;;;;;5069779;28;20503;-52
2023/09/04 11:06:20;;;;;;;21.02;15.57;;;;;;;;;;5052057;28;20033;-53
2023/09/04 11:08:53;;;;;;;18.25;15.10;;;;;;;;;;5069908;28;20408;-51
2023/09/04 11:11:26;;;;;;;18.05;13.93;;;;;;;;;;5069877;28;20099;-50
2023/09/04 11:13:58;;;;;;;18.73;14.55;;;;;;;;;;5069474;28;20485;-50
2023/09/04 11:16:27;;;;;;;18.10;14.30;;;;;;;;;;5069503;28;20039;-54
2023/09/04 11:19:04;;;;;;;17.58;14.15;;;;;;;;;;5069540;28;20092;-51
2023/09/04 11:21:34;;;;;;;17.88;13.98;;;;;;;;;;5069367;28;20035;-50
2023/09/04 11:24:00;;;;;;;18.50;15.07;;;;;;;;;;5069171;28;20107;-55
2023/09/04 11:26:27;;;;;;;20.85;14.98;;;;;;;;;;5069404;28;20033;-48
2023/09/04 11:28:53;;;;;;;18.77;15.10;;;;;;;;;;5069445;28;20061;-53
2023/09/04 11:31:19;;;;;;;18.80;15.75;;;;;;;;;;5069193;28;20028;-53
2023/09/04 11:33:48;;;;;;;19.70;15.95;;;;;;;;;;5069254;28;20078;-48
2023/09/04 11:36:14;;;;;;;18.23;16.00;;;;;;;;;;5068235;28;20057;-49
2023/09/04 11:38:40;;;;;;;18.80;15.15;;;;;;;;;;5069408;28;20102;-50
2023/09/04 11:41:20;;;;;;;17.23;15.13;;;;;;;;;;5069338;28;20060;-51
2023/09/04 11:43:46;;;;;;;17.70;15.50;;;;;;;;;;5069005;28;20029;-49
2023/09/04 11:46:12;;;;;;;19.00;15.52;;;;;;;;;;5068750;28;20031;-51
2023/09/04 11:48:38;;;;;;;19.00;15.68;;;;;;;;;;5069434;28;20100;-51
2023/09/04 11:53:43;;;;;;;17.30;15.10;;;;;;;;;;5091032;28;20472;-52
2023/09/04 11:56:09;;;;;;;17.65;15.75;;;;;;;;;;5093622;28;20032;-53
2023/09/04 11:58:36;;;;;;;18.45;16.50;;;;;;;;;;5093995;28;20024;-53
2023/09/04 12:01:02;;;;;;;17.73;15.82;;;;;;;;;;5093577;28;20031;-55
2023/09/04 12:03:28;;;;;;;18.60;16.60;;;;;;;;;;5092508;28;20028;-54
2023/09/04 12:05:54;;;;;;;18.73;16.25;;;;;;;;;;5093464;28;20097;-54
2023/09/04 12:08:20;;;;;;;19.25;16.40;;;;;;;;;;5093800;28;20024;-50
2023/09/04 12:10:46;;;;;;;18.85;15.95;;;;;;;;;;5093601;28;20028;-47
2023/09/04 12:13:12;;;;;;;20.45;16.35;;;;;;;;;;5092149;28;20024;-51
2023/09/04 12:15:39;;;;;;;18.70;16.70;;;;;;;;;;5093629;28;20422;-49
2023/09/04 12:18:06;;;;;;;18.20;16.30;;;;;;;;;;4736604;28;10000314;-63
2023/09/04 12:20:35;;;;;;;19.38;16.40;;;;;;;;;;5079236;28;20032;-62
2023/09/04 12:23:01;;;;;;;17.88;15.82;;;;;;;;;;5084375;28;20449;-63
2023/09/04 12:25:38;;;;;;;18.67;16.67;;;;;;;;;;5089208;28;20071;-63
2023/09/04 12:28:08;;;;;;;18.77;16.30;;;;;;;;;;5069904;28;20116;-64
2023/09/04 12:30:47;;;;;;;18.25;15.73;;;;;;;;;;5067959;28;20053;-64
2023/09/04 12:33:15;;;;;;;18.35;16.10;;;;;;;;;;5069768;28;20025;-64
2023/09/04 12:35:41;;;;;;;19.48;15.60;;;;;;;;;;5081663;28;20031;-65
2023/09/04 12:38:07;;;;;;;18.02;16.13;;;;;;;;;;5072189;28;20173;-64
2023/09/04 12:40:33;;;;;;;18.50;16.25;;;;;;;;;;5069572;28;20396;-64
2023/09/04 12:43:01;;;;;;;18.33;16.25;;;;;;;;;;5068833;28;20024;-63
2023/09/04 12:45:27;;;;;;;18.45;16.08;;;;;;;;;;5067757;28;20017;-64
2023/09/04 12:47:53;;;;;;;18.05;16.05;;;;;;;;;;5069364;28;20507;-65
2023/09/04 12:50:19;;;;;;;18.10;15.90;;;;;;;;;;5069507;28;20024;-64
2023/09/04 12:52:48;;;;;;;18.08;16.15;;;;;;;;;;5080428;28;20070;-65
2023/09/04 12:55:15;;;;;;;20.40;16.75;;;;;;;;;;5089852;28;20031;-64
2023/09/04 12:57:41;;;;;;;18.25;16.30;;;;;;;;;;5087754;28;20127;-64
2023/09/04 13:00:09;;;;;;;18.17;16.25;;;;;;;;;;5089281;28;20024;-63
2023/09/04 13:02:36;;;;;;;;;;;;;;;;;;5088423;28;20028;-66
2023/09/04 13:05:03;;;;;;;18.50;16.50;;;;;;;;;;5087185;28;20442;-58
2023/09/04 13:07:29;;;;;;;17.92;15.77;;;;;;;;;;5088148;28;20117;-58
2023/09/04 13:09:55;;;;;;;23.10;16.00;;;;;;;;;;5089612;28;20077;-55
2023/09/04 13:12:21;;;;;;;18.95;15.90;;;;;;;;;;5088869;28;20028;-58
2023/09/04 13:14:47;;;;;;;17.98;15.98;;;;;;;;;;5086843;28;20043;-56
2023/09/04 13:17:13;;;;;;;18.08;16.00;;;;;;;;;;5070197;28;20123;-54
2023/09/04 13:19:39;;;;;;;18.25;15.93;;;;;;;;;;5088683;28;20097;-57
2023/09/04 13:22:05;;;;;;;17.67;15.43;;;;;;;;;;5088665;28;20028;-55
2023/09/04 13:24:31;;;;;;;17.38;14.98;;;;;;;;;;5088004;28;20020;-55
2023/09/04 13:26:57;;;;;;;18.48;15.60;;;;;;;;;;5088499;28;20123;-59
2023/09/04 13:29:23;;;;;;;17.90;16.00;;;;;;;;;;5086549;28;20020;-55
2023/09/04 13:31:49;;;;;;;17.83;15.88;;;;;;;;;;5087662;28;20594;-54
2023/09/04 13:34:15;;;;;;;18.67;16.10;;;;;;;;;;5088215;28;20369;-56
2023/09/04 13:36:41;;;;;;;18.05;16.15;;;;;;;;;;5080751;28;20032;-52
2023/09/04 13:39:07;;;;;;;18.20;15.98;;;;;;;;;;5067803;28;20043;-64
2023/09/04 13:41:33;;;;;;;19.50;16.25;;;;;;;;;;5067986;28;20024;-64
2023/09/04 13:44:00;;;;;;;17.80;15.90;;;;;;;;;;5067441;28;20097;-63
2023/09/04 13:46:26;;;;;;;18.08;16.17;;;;;;;;;;5068667;28;20020;-64
2023/09/04 13:48:52;;;;;;;18.20;16.30;;;;;;;;;;5068644;28;20115;-64
2023/09/04 13:51:17;;;;;;;19.25;16.05;;;;;;;;;;5071090;28;20445;-65
2023/09/04 13:53:43;;;;;;;18.83;15.70;;;;;;;;;;5082008;28;20028;-65
2023/09/04 13:56:09;;;;;;;18.10;16.20;;;;;;;;;;5089708;28;20089;-64
2023/09/04 13:58:35;;;;;;;17.55;15.73;;;;;;;;;;5091679;28;20027;-62
2023/09/04 14:01:01;;;;;;;18.75;16.20;;;;;;;;;;5091628;28;20519;-62
2023/09/04 14:03:27;;;;;;;18.75;16.85;;;;;;;;;;5090859;28;20032;-65
2023/09/04 14:05:53;;;;;;;17.30;15.37;;;;;;;;;;4737090;28;10000595;-65
2023/09/04 14:08:19;;;;;;;18.42;15.77;;;;;;;;;;5088585;28;20013;-66
2023/09/04 14:10:45;;;;;;;18.23;16.33;;;;;;;;;;5088121;28;20077;-65
2023/09/04 14:13:11;;;;;;;18.50;16.20;;;;;;;;;;5087559;28;20028;-64
2023/09/04 14:15:37;;;;;;;17.20;15.38;;;;;;;;;;5086704;28;20063;-64
2023/09/04 14:18:03;;;;;;;19.23;16.30;;;;;;;;;;5087629;28;20028;-65
2023/09/04 14:20:29;;;;;;;20.02;17.33;;;;;;;;;;5087945;28;20119;-64